Time;durP1;ratioP1;P1;durP2;ratioP2;P2;SDS_P1;SDS_P2;PMS_P1;PMS_P2;Temp;Humidity;BMP_temperature;BMP_pressure;BME280_temperature;BME280_humidity;BME280_pressure;Samples;Min_cycle;Max_cycle;Signal;HPM_P1;HPM_P2
2022/10/21 00:02:57;;;;;;;19.80;12.75;;;;;;;;;;5071368;28;20043;-71
2022/10/21 00:06:01;;;;;;;35.92;14.60;;;;;;;;;;5071270;28;20396;-71
2022/10/21 00:09:06;;;;;;;40.85;11.88;;;;;;;;;;5071111;28;20044;-71
2022/10/21 00:12:10;;;;;;;22.52;12.68;;;;;;;;;;5071291;28;20408;-71
2022/10/21 00:15:14;;;;;;;19.95;11.57;;;;;;;;;;5071286;28;20059;-71
2022/10/21 00:18:18;;;;;;;24.05;12.57;;;;;;;;;;5071125;28;20036;-71
2022/10/21 00:21:23;;;;;;;20.40;12.27;;;;;;;;;;5070782;28;20047;-71
2022/10/21 00:24:28;;;;;;;19.70;11.90;;;;;;;;;;5071088;28;20048;-71
2022/10/21 00:27:32;;;;;;;23.80;12.30;;;;;;;;;;5069930;28;20522;-71
2022/10/21 00:30:41;;;;;;;21.33;11.48;;;;;;;;;;5069617;28;20056;-69
2022/10/21 00:33:45;;;;;;;23.48;12.32;;;;;;;;;;5070966;28;20610;-71
2022/10/21 00:36:50;;;;;;;19.63;11.32;;;;;;;;;;5071149;28;20226;-71
2022/10/21 00:39:54;;;;;;;20.65;12.18;;;;;;;;;;5070985;28;20106;-71
2022/10/21 00:42:59;;;;;;;25.75;12.93;;;;;;;;;;5070350;28;20039;-71
2022/10/21 00:46:04;;;;;;;23.48;12.20;;;;;;;;;;5070906;28;20043;-71
2022/10/21 00:49:29;;;;;;;24.52;12.68;;;;;;;;;;5070914;28;20052;-71
2022/10/21 00:52:33;;;;;;;19.73;12.75;;;;;;;;;;5070938;28;20056;-71
2022/10/21 00:55:40;;;;;;;21.67;12.70;;;;;;;;;;5070589;28;20086;-71
2022/10/21 00:58:46;;;;;;;21.25;12.60;;;;;;;;;;5070959;28;20039;-71
2022/10/21 01:01:50;;;;;;;23.98;14.30;;;;;;;;;;5070866;28;20047;-71
2022/10/21 01:04:57;;;;;;;24.60;13.52;;;;;;;;;;5073876;28;20044;-71
2022/10/21 01:08:01;;;;;;;22.80;12.82;;;;;;;;;;5074793;28;20047;-71
2022/10/21 01:11:06;;;;;;;22.77;13.05;;;;;;;;;;5074239;28;20123;-71
2022/10/21 01:14:11;;;;;;;26.13;12.45;;;;;;;;;;5074345;28;20039;-71
2022/10/21 01:17:15;;;;;;;21.75;12.70;;;;;;;;;;5074384;28;20048;-71
2022/10/21 01:20:28;;;;;;;22.85;12.40;;;;;;;;;;5074265;28;20036;-71
2022/10/21 01:23:52;;;;;;;25.63;13.60;;;;;;;;;;5074514;28;20051;-71
2022/10/21 01:27:14;;;;;;;23.10;11.90;;;;;;;;;;5074187;28;20597;-71
2022/10/21 01:30:39;;;;;;;20.98;11.57;;;;;;;;;;5073701;28;20447;-71
2022/10/21 01:33:46;;;;;;;17.83;11.40;;;;;;;;;;5074320;28;20051;-71
2022/10/21 01:36:55;;;;;;;18.48;12.07;;;;;;;;;;5074323;28;20047;-71
2022/10/21 01:40:08;;;;;;;19.73;11.77;;;;;;;;;;5073825;28;20059;-71
2022/10/21 01:43:20;;;;;;;16.88;11.15;;;;;;;;;;5074722;28;20075;-71
2022/10/21 01:46:31;;;;;;;18.92;11.50;;;;;;;;;;5073929;28;20044;-71
2022/10/21 01:49:55;;;;;;;19.63;11.13;;;;;;;;;;5073747;28;20546;-71
2022/10/21 01:53:03;;;;;;;24.40;11.35;;;;;;;;;;5073803;28;20051;-71
2022/10/21 01:56:09;;;;;;;17.63;10.90;;;;;;;;;;5073955;28;20035;-71
2022/10/21 01:59:13;;;;;;;18.63;10.73;;;;;;;;;;5073867;28;20051;-71
2022/10/21 02:02:19;;;;;;;18.00;11.27;;;;;;;;;;5072699;28;20499;-71
2022/10/21 02:05:28;;;;;;;22.05;11.68;;;;;;;;;;5073650;28;20043;-71
2022/10/21 02:08:32;;;;;;;22.67;11.55;;;;;;;;;;5073696;28;20048;-71
2022/10/21 02:11:38;;;;;;;18.80;11.20;;;;;;;;;;5073069;28;20055;-71
2022/10/21 02:14:45;;;;;;;17.77;10.75;;;;;;;;;;5073644;28;20040;-71
2022/10/21 02:17:54;;;;;;;18.55;11.32;;;;;;;;;;5073155;28;20507;-71
2022/10/21 02:21:04;;;;;;;16.92;12.05;;;;;;;;;;5073333;28;20040;-71
2022/10/21 02:24:20;;;;;;;23.70;12.88;;;;;;;;;;5073374;28;20499;-71
2022/10/21 02:27:24;;;;;;;14.65;10.15;;;;;;;;;;5073204;28;20047;-71
2022/10/21 02:30:32;;;;;;;17.80;10.65;;;;;;;;;;5073032;28;20507;-71
2022/10/21 02:33:55;;;;;;;23.67;11.07;;;;;;;;;;5073256;28;20051;-71
2022/10/21 02:37:06;;;;;;;20.98;11.82;;;;;;;;;;5073365;28;20040;-71
2022/10/21 02:40:17;;;;;;;21.00;11.73;;;;;;;;;;5073639;28;20061;-71
2022/10/21 02:43:23;;;;;;;18.25;11.07;;;;;;;;;;5073130;28;20043;-71
2022/10/21 02:46:35;;;;;;;21.27;11.30;;;;;;;;;;5072904;28;20039;-71
2022/10/21 02:49:39;;;;;;;22.20;11.80;;;;;;;;;;5072687;28;20048;-70
2022/10/21 02:52:43;;;;;;;18.48;10.82;;;;;;;;;;5072814;28;20056;-71
2022/10/21 02:55:48;;;;;;;18.98;11.02;;;;;;;;;;5072849;28;20039;-71
2022/10/21 02:58:53;;;;;;;19.88;12.38;;;;;;;;;;5072692;28;20047;-71
2022/10/21 03:01:57;;;;;;;20.20;11.80;;;;;;;;;;5072394;28;20048;-71
2022/10/21 03:05:01;;;;;;;27.02;12.73;;;;;;;;;;5071699;28;20035;-71
2022/10/21 03:08:05;;;;;;;25.98;12.50;;;;;;;;;;5072147;28;20047;-71
2022/10/21 03:11:10;;;;;;;21.67;11.73;;;;;;;;;;5071893;28;20043;-71
2022/10/21 03:14:14;;;;;;;19.98;12.63;;;;;;;;;;5072234;28;20052;-71
2022/10/21 03:17:18;;;;;;;21.10;11.52;;;;;;;;;;5071886;28;20047;-71
2022/10/21 03:20:22;;;;;;;17.95;11.88;;;;;;;;;;5070981;28;20539;-71
2022/10/21 03:23:27;;;;;;;19.25;12.50;;;;;;;;;;5071710;28;20043;-71
2022/10/21 03:26:31;;;;;;;25.27;11.75;;;;;;;;;;5070943;28;20039;-71
2022/10/21 03:29:35;;;;;;;19.33;11.88;;;;;;;;;;5071444;28;20047;-71
2022/10/21 03:32:40;;;;;;;22.70;11.98;;;;;;;;;;5071974;28;20063;-71
2022/10/21 03:35:44;;;;;;;20.02;12.70;;;;;;;;;;5071899;28;20047;-71
2022/10/21 03:38:48;;;;;;;26.10;12.02;;;;;;;;;;5071667;28;20400;-71
2022/10/21 03:41:52;;;;;;;16.33;10.50;;;;;;;;;;5071747;28;20044;-71
2022/10/21 03:44:57;;;;;;;18.00;11.80;;;;;;;;;;5071556;28;20047;-71
2022/10/21 03:48:01;;;;;;;15.43;11.07;;;;;;;;;;5071786;28;20051;-71
2022/10/21 03:51:05;;;;;;;22.33;11.82;;;;;;;;;;5071495;28;20047;-71
2022/10/21 03:54:10;;;;;;;16.88;10.48;;;;;;;;;;5071737;28;20059;-71
2022/10/21 03:57:14;;;;;;;22.42;11.98;;;;;;;;;;5071660;28;20048;-71
2022/10/21 04:00:19;;;;;;;30.35;12.68;;;;;;;;;;5071358;28;20039;-71
2022/10/21 04:03:23;;;;;;;19.52;11.25;;;;;;;;;;5071365;28;20051;-71
2022/10/21 04:06:27;;;;;;;18.30;11.02;;;;;;;;;;5071504;28;20048;-71
2022/10/21 04:09:31;;;;;;;15.95;10.43;;;;;;;;;;5071198;28;20043;-71
2022/10/21 04:12:36;;;;;;;21.52;12.63;;;;;;;;;;5071556;28;20060;-71
2022/10/21 04:15:40;;;;;;;30.90;11.30;;;;;;;;;;5071354;28;20044;-71
2022/10/21 04:18:44;;;;;;;19.67;10.05;;;;;;;;;;5071194;28;20503;-71
2022/10/21 04:21:49;;;;;;;19.42;11.32;;;;;;;;;;5070927;28;20048;-71
2022/10/21 04:24:53;;;;;;;22.00;11.18;;;;;;;;;;5071361;28;20047;-71
2022/10/21 04:27:57;;;;;;;19.80;10.50;;;;;;;;;;5071055;28;20035;-70
2022/10/21 04:31:02;;;;;;;30.02;10.93;;;;;;;;;;5070800;28;20064;-71
2022/10/21 04:34:06;;;;;;;26.95;11.52;;;;;;;;;;5070982;28;20146;-71
2022/10/21 04:37:11;;;;;;;26.00;12.18;;;;;;;;;;5071341;28;20043;-71
2022/10/21 04:40:15;;;;;;;21.10;10.95;;;;;;;;;;5076964;28;20052;-71
2022/10/21 04:43:20;;;;;;;22.80;10.63;;;;;;;;;;5077514;28;20044;-71
2022/10/21 04:46:24;;;;;;;23.70;11.50;;;;;;;;;;5077938;28;20035;-71
2022/10/21 04:49:28;;;;;;;25.38;13.10;;;;;;;;;;5077601;28;20035;-71
2022/10/21 04:52:32;;;;;;;19.30;11.77;;;;;;;;;;5077565;28;20052;-71
2022/10/21 04:55:40;;;;;;;21.40;10.90;;;;;;;;;;5077544;28;20044;-71
2022/10/21 04:58:44;;;;;;;32.05;11.80;;;;;;;;;;5077501;28;20507;-71
2022/10/21 05:01:48;;;;;;;20.25;11.60;;;;;;;;;;5077409;28;20039;-71
2022/10/21 05:04:53;;;;;;;25.92;10.98;;;;;;;;;;5077445;28;20040;-71
2022/10/21 05:07:57;;;;;;;19.58;11.38;;;;;;;;;;5077441;28;20036;-75
2022/10/21 05:11:04;;;;;;;15.30;10.40;;;;;;;;;;5076931;28;20178;-72
2022/10/21 05:14:09;;;;;;;23.10;10.35;;;;;;;;;;5076283;28;20047;-72
2022/10/21 05:17:13;;;;;;;26.17;11.77;;;;;;;;;;5076724;28;20051;-72
2022/10/21 05:20:17;;;;;;;23.20;11.32;;;;;;;;;;5077073;28;20055;-73
2022/10/21 05:23:24;;;;;;;17.98;9.70;;;;;;;;;;5076452;28;20051;-73
2022/10/21 05:26:29;;;;;;;24.98;10.75;;;;;;;;;;5077117;28;20032;-73
2022/10/21 05:29:34;;;;;;;17.85;11.23;;;;;;;;;;5077037;28;20052;-72
2022/10/21 05:32:38;;;;;;;24.73;10.60;;;;;;;;;;5077074;28;20391;-72
2022/10/21 05:35:43;;;;;;;18.60;9.57;;;;;;;;;;5077183;28;20047;-73
2022/10/21 05:38:47;;;;;;;18.88;9.48;;;;;;;;;;5076867;28;20067;-73
2022/10/21 05:41:52;;;;;;;15.02;9.60;;;;;;;;;;5076674;28;20465;-73
2022/10/21 05:44:56;;;;;;;25.38;10.65;;;;;;;;;;5076867;28;20043;-72
2022/10/21 05:48:00;;;;;;;24.75;11.38;;;;;;;;;;5077228;28;20047;-73
2022/10/21 05:51:05;;;;;;;24.55;10.45;;;;;;;;;;5072888;28;20079;-73
2022/10/21 05:54:09;;;;;;;29.95;11.70;;;;;;;;;;5074016;28;20059;-73
2022/10/21 05:57:14;;;;;;;20.92;9.95;;;;;;;;;;5073581;28;20048;-70
2022/10/21 06:00:18;;;;;;;19.35;9.70;;;;;;;;;;5073625;28;20051;-71
2022/10/21 06:03:23;;;;;;;23.63;10.63;;;;;;;;;;5073664;28;20499;-71
2022/10/21 06:06:27;;;;;;;28.30;11.07;;;;;;;;;;5073149;28;20511;-71
2022/10/21 06:09:32;;;;;;;29.52;11.05;;;;;;;;;;5072660;28;20447;-73
2022/10/21 06:12:36;;;;;;;171.27;24.42;;;;;;;;;;5073297;28;20059;-71
2022/10/21 06:15:40;;;;;;;1700.72;163.10;;;;;;;;;;5072800;28;20036;-71
2022/10/21 06:18:44;;;;;;;36.17;12.05;;;;;;;;;;5073369;28;20514;-71
2022/10/21 06:21:49;;;;;;;19.10;10.07;;;;;;;;;;5072927;28;20047;-71
2022/10/21 06:24:53;;;;;;;20.45;10.63;;;;;;;;;;5072978;28;20047;-69
2022/10/21 06:27:57;;;;;;;17.30;9.63;;;;;;;;;;5073186;28;20047;-70
2022/10/21 06:31:02;;;;;;;20.38;10.50;;;;;;;;;;5072456;28;20404;-71
2022/10/21 06:34:06;;;;;;;32.80;11.27;;;;;;;;;;5073048;28;20043;-71
2022/10/21 06:37:11;;;;;;;24.45;10.20;;;;;;;;;;5072706;28;20506;-68
2022/10/21 06:40:15;;;;;;;26.80;10.13;;;;;;;;;;5072469;28;20400;-68
2022/10/21 06:43:20;;;;;;;22.52;10.02;;;;;;;;;;5072817;28;20052;-73
2022/10/21 06:46:24;;;;;;;27.10;9.27;;;;;;;;;;5072905;28;20055;-73
2022/10/21 06:49:28;;;;;;;28.63;9.45;;;;;;;;;;5072869;28;20021;-75
2022/10/21 06:52:33;;;;;;;19.00;9.07;;;;;;;;;;5072415;28;20045;-73
2022/10/21 06:55:37;;;;;;;18.42;8.60;;;;;;;;;;5072375;28;20036;-74
2022/10/21 06:58:45;;;;;;;17.63;8.60;;;;;;;;;;5072407;28;20036;-74
2022/10/21 07:01:49;;;;;;;18.17;9.10;;;;;;;;;;5070578;28;20029;-74
2022/10/21 07:04:56;;;;;;;26.25;10.00;;;;;;;;;;5071421;28;20029;-74
2022/10/21 07:08:00;;;;;;;21.33;10.35;;;;;;;;;;5072204;28;20039;-74
2022/10/21 07:11:05;;;;;;;28.83;11.45;;;;;;;;;;5071850;28;20059;-75
2022/10/21 07:14:11;;;;;;;25.38;10.93;;;;;;;;;;5071563;28;20052;-75
2022/10/21 07:17:15;;;;;;;25.90;10.63;;;;;;;;;;5072244;28;20051;-72
2022/10/21 07:20:20;;;;;;;29.13;11.20;;;;;;;;;;5071430;28;20047;-73
2022/10/21 07:23:24;;;;;;;27.25;10.82;;;;;;;;;;5072060;28;20404;-76
2022/10/21 07:26:30;;;;;;;23.05;9.95;;;;;;;;;;5071883;28;20086;-76
2022/10/21 07:29:34;;;;;;;19.08;9.00;;;;;;;;;;5072031;28;20043;-75
2022/10/21 07:32:39;;;;;;;22.77;9.68;;;;;;;;;;5071779;28;20042;-75
2022/10/21 07:35:43;;;;;;;22.25;9.52;;;;;;;;;;5072021;28;20048;-75
2022/10/21 07:38:48;;;;;;;25.48;10.68;;;;;;;;;;5071988;28;20040;-75
2022/10/21 07:41:55;;;;;;;22.45;9.80;;;;;;;;;;5071805;28;20440;-76
2022/10/21 07:45:02;;;;;;;27.55;10.68;;;;;;;;;;5071500;28;20045;-73
2022/10/21 07:48:06;;;;;;;23.08;8.70;;;;;;;;;;5071599;28;20491;-73
2022/10/21 07:51:12;;;;;;;29.58;10.95;;;;;;;;;;5071273;28;20053;-73
2022/10/21 07:54:16;;;;;;;120.93;19.90;;;;;;;;;;5071420;28;20059;-75
2022/10/21 07:57:20;;;;;;;115.40;20.65;;;;;;;;;;5071491;28;20040;-73
2022/10/21 08:00:24;;;;;;;34.63;10.75;;;;;;;;;;5071341;28;20203;-71
2022/10/21 08:03:29;;;;;;;20.25;9.35;;;;;;;;;;5071321;28;20047;-71
2022/10/21 08:06:33;;;;;;;18.60;9.55;;;;;;;;;;5071277;28;20036;-71
2022/10/21 08:09:37;;;;;;;32.88;10.77;;;;;;;;;;5071139;28;20042;-71
2022/10/21 08:12:42;;;;;;;22.48;10.85;;;;;;;;;;5070610;28;20047;-73
2022/10/21 08:15:47;;;;;;;33.25;12.70;;;;;;;;;;5071195;28;20044;-73
2022/10/21 08:18:52;;;;;;;21.48;8.82;;;;;;;;;;5071067;28;20043;-73
2022/10/21 08:21:57;;;;;;;24.30;8.48;;;;;;;;;;5071325;28;20047;-73
2022/10/21 08:25:01;;;;;;;13.82;6.60;;;;;;;;;;5071166;28;20400;-73
2022/10/21 08:28:06;;;;;;;17.73;8.50;;;;;;;;;;5071121;28;20036;-73
2022/10/21 08:31:12;;;;;;;13.10;8.25;;;;;;;;;;5070557;28;20041;-73
2022/10/21 08:34:16;;;;;;;17.25;7.78;;;;;;;;;;5071243;28;20036;-72
2022/10/21 08:37:20;;;;;;;15.63;7.88;;;;;;;;;;5070884;28;20040;-73
2022/10/21 08:40:25;;;;;;;17.58;7.43;;;;;;;;;;5070885;28;20051;-72
2022/10/21 08:43:33;;;;;;;13.93;6.90;;;;;;;;;;5071017;28;20047;-72
2022/10/21 08:46:44;;;;;;;14.55;6.70;;;;;;;;;;5070582;28;20039;-73
2022/10/21 08:49:48;;;;;;;9.15;5.90;;;;;;;;;;5070845;28;20203;-72
2022/10/21 08:52:56;;;;;;;11.82;6.57;;;;;;;;;;5070886;28;20044;-72
2022/10/21 08:56:06;;;;;;;14.23;6.60;;;;;;;;;;5070647;28;20041;-73
2022/10/21 08:59:21;;;;;;;13.45;7.00;;;;;;;;;;5070664;28;20040;-72
2022/10/21 09:02:40;;;;;;;13.35;7.47;;;;;;;;;;5070590;28;20040;-73
2022/10/21 09:05:44;;;;;;;12.00;6.75;;;;;;;;;;5070894;28;20040;-72
2022/10/21 09:08:52;;;;;;;16.88;6.75;;;;;;;;;;5070352;28;20059;-72
2022/10/21 09:12:15;;;;;;;11.18;6.85;;;;;;;;;;5070593;28;20055;-73
2022/10/21 09:15:25;;;;;;;11.35;7.28;;;;;;;;;;5070819;28;20036;-73
2022/10/21 09:18:48;;;;;;;20.20;7.82;;;;;;;;;;5070549;28;20044;-73
2022/10/21 09:21:58;;;;;;;12.70;6.15;;;;;;;;;;5070255;28;20043;-72
2022/10/21 09:25:03;;;;;;;10.85;6.45;;;;;;;;;;5071835;28;20036;-73
2022/10/21 09:28:14;;;;;;;11.98;6.57;;;;;;;;;;5073958;28;20040;-70
2022/10/21 09:31:20;;;;;;;11.13;5.85;;;;;;;;;;5073763;28;20055;-70
2022/10/21 09:34:50;;;;;;;7.60;5.50;;;;;;;;;;5073942;28;20049;-71
2022/10/21 09:37:56;;;;;;;10.57;7.13;;;;;;;;;;5074078;28;20040;-74
2022/10/21 09:41:02;;;;;;;9.88;6.15;;;;;;;;;;5074027;28;20041;-72
2022/10/21 09:44:10;;;;;;;8.70;5.47;;;;;;;;;;5073954;28;20044;-72
2022/10/21 09:47:19;;;;;;;8.60;6.00;;;;;;;;;;5073995;28;20044;-72
2022/10/21 09:50:23;;;;;;;11.40;5.75;;;;;;;;;;5073794;28;20040;-73
2022/10/21 09:53:37;;;;;;;8.60;6.30;;;;;;;;;;5073631;28;20049;-74
2022/10/21 09:56:48;;;;;;;13.32;5.60;;;;;;;;;;5072820;28;20028;-72
2022/10/21 09:59:54;;;;;;;7.57;5.57;;;;;;;;;;5073587;28;20043;-72
2022/10/21 10:02:59;;;;;;;10.20;5.05;;;;;;;;;;5073492;28;20037;-72
2022/10/21 10:06:04;;;;;;;11.93;6.35;;;;;;;;;;5073669;28;20492;-72
2022/10/21 10:09:38;;;;;;;13.70;6.55;;;;;;;;;;5072366;28;20040;-72
2022/10/21 10:12:54;;;;;;;12.52;6.43;;;;;;;;;;5073382;28;20052;-72
2022/10/21 10:16:11;;;;;;;14.38;7.30;;;;;;;;;;5073261;28;20043;-72
2022/10/21 10:19:20;;;;;;;14.70;6.97;;;;;;;;;;5073319;28;20183;-72
2022/10/21 10:22:25;;;;;;;13.45;6.50;;;;;;;;;;5073441;28;20045;-71
2022/10/21 10:25:38;;;;;;;12.07;6.68;;;;;;;;;;5073395;28;20040;-71
2022/10/21 10:28:47;;;;;;;12.90;6.80;;;;;;;;;;5074147;28;20412;-71
2022/10/21 10:31:57;;;;;;;14.70;9.00;;;;;;;;;;5072811;28;20162;-77
2022/10/21 10:35:04;;;;;;;13.98;8.60;;;;;;;;;;5072934;28;20499;-70
2022/10/21 10:38:18;;;;;;;11.80;8.02;;;;;;;;;;5073352;28;20040;-71
2022/10/21 10:41:28;;;;;;;12.45;7.78;;;;;;;;;;5072793;28;20037;-71
2022/10/21 10:44:40;;;;;;;14.23;8.30;;;;;;;;;;5072764;28;20428;-69
2022/10/21 10:47:51;;;;;;;18.00;8.77;;;;;;;;;;5073213;28;20358;-69
2022/10/21 10:50:57;;;;;;;14.40;7.88;;;;;;;;;;5072785;28;20040;-69
2022/10/21 10:54:22;;;;;;;19.83;10.52;;;;;;;;;;5072759;28;20037;-71
2022/10/21 10:57:27;;;;;;;16.38;8.20;;;;;;;;;;5072914;28;20051;-71
2022/10/21 11:00:34;;;;;;;15.65;8.45;;;;;;;;;;5072089;28;20048;-71
2022/10/21 11:03:42;;;;;;;10.38;7.22;;;;;;;;;;5072586;28;20032;-71
2022/10/21 11:06:56;;;;;;;15.38;7.65;;;;;;;;;;5071940;28;20047;-71
2022/10/21 11:10:06;;;;;;;9.88;5.85;;;;;;;;;;5071951;28;20040;-71
2022/10/21 11:13:12;;;;;;;14.30;6.25;;;;;;;;;;5076055;28;20040;-72
2022/10/21 11:16:32;;;;;;;10.15;5.38;;;;;;;;;;5072492;28;20400;-71
2022/10/21 11:19:42;;;;;;;7.55;4.60;;;;;;;;;;5071866;28;20510;-71
2022/10/21 11:22:55;;;;;;;10.30;6.38;;;;;;;;;;5072115;28;20028;-71
2022/10/21 11:26:05;;;;;;;8.70;5.45;;;;;;;;;;5072255;28;20040;-72
2022/10/21 11:29:12;;;;;;;6.25;5.05;;;;;;;;;;5070937;28;20472;-71
2022/10/21 11:32:16;;;;;;;8.38;5.43;;;;;;;;;;5071729;28;20044;-71
2022/10/21 11:35:24;;;;;;;7.75;5.13;;;;;;;;;;5071922;28;20083;-69
2022/10/21 11:38:48;;;;;;;9.05;5.22;;;;;;;;;;5071894;28;20373;-72
2022/10/21 11:42:02;;;;;;;8.77;5.20;;;;;;;;;;5071874;28;20045;-71
2022/10/21 11:45:09;;;;;;;6.03;4.45;;;;;;;;;;5071789;28;20040;-71
2022/10/21 11:48:17;;;;;;;8.32;4.90;;;;;;;;;;5071286;28;20037;-70
2022/10/21 11:51:30;;;;;;;11.38;5.95;;;;;;;;;;5071527;28;20053;-71
2022/10/21 11:54:48;;;;;;;9.40;5.13;;;;;;;;;;5071368;28;20045;-71
2022/10/21 11:57:52;;;;;;;12.55;6.07;;;;;;;;;;5071505;28;20036;-71
2022/10/21 12:01:09;;;;;;;14.00;7.20;;;;;;;;;;5071368;28;20318;-71
2022/10/21 12:04:20;;;;;;;12.45;6.13;;;;;;;;;;5071362;28;20040;-71
2022/10/21 12:07:43;;;;;;;11.43;5.40;;;;;;;;;;5071338;28;20055;-71
2022/10/21 12:11:19;;;;;;;9.15;5.28;;;;;;;;;;5071032;28;20043;-71
2022/10/21 12:14:29;;;;;;;9.60;5.97;;;;;;;;;;5070488;28;20044;-71
2022/10/21 12:17:34;;;;;;;12.48;6.20;;;;;;;;;;5071449;28;20044;-71
2022/10/21 12:20:39;;;;;;;13.02;5.03;;;;;;;;;;5070901;28;20036;-70
2022/10/21 12:23:44;;;;;;;15.00;6.43;;;;;;;;;;5071399;28;20396;-70
2022/10/21 12:26:54;;;;;;;7.07;5.15;;;;;;;;;;5071206;28;20040;-70
2022/10/21 12:30:16;;;;;;;8.07;5.38;;;;;;;;;;5070872;28;20044;-70
2022/10/21 12:33:40;;;;;;;8.52;5.53;;;;;;;;;;5071197;28;20052;-70
2022/10/21 12:36:45;;;;;;;9.00;5.75;;;;;;;;;;5070738;28;20476;-71
2022/10/21 12:39:50;;;;;;;12.65;5.32;;;;;;;;;;5070534;28;20036;-71
2022/10/21 12:43:03;;;;;;;13.85;5.53;;;;;;;;;;5070784;28;20046;-70
2022/10/21 12:46:09;;;;;;;19.00;6.10;;;;;;;;;;5070980;28;20032;-70
2022/10/21 12:49:13;;;;;;;8.60;4.70;;;;;;;;;;5071159;28;20037;-70
2022/10/21 12:52:22;;;;;;;7.85;4.78;;;;;;;;;;5070772;28;20049;-70
2022/10/21 12:55:27;;;;;;;9.38;5.30;;;;;;;;;;5070840;28;20037;-70
2022/10/21 12:58:43;;;;;;;6.35;5.20;;;;;;;;;;5071448;28;20041;-70
2022/10/21 13:02:07;;;;;;;14.38;6.40;;;;;;;;;;5074651;28;20032;-70
2022/10/21 13:05:12;;;;;;;11.77;6.53;;;;;;;;;;5074500;28;20052;-70
2022/10/21 13:08:22;;;;;;;7.80;5.28;;;;;;;;;;5074838;28;20040;-70
2022/10/21 13:11:33;;;;;;;10.40;4.85;;;;;;;;;;5074612;28;20053;-71
2022/10/21 13:14:47;;;;;;;11.20;5.82;;;;;;;;;;5074679;28;20472;-70
2022/10/21 13:17:52;;;;;;;8.57;5.15;;;;;;;;;;5074313;28;20048;-71
2022/10/21 13:20:58;;;;;;;13.82;6.38;;;;;;;;;;5074335;28;20048;-70
2022/10/21 13:24:12;;;;;;;10.30;6.10;;;;;;;;;;5074278;28;20051;-72
2022/10/21 13:27:27;;;;;;;12.18;6.18;;;;;;;;;;5073987;28;20041;-71
2022/10/21 13:30:36;;;;;;;10.00;6.05;;;;;;;;;;5073949;28;20385;-71
2022/10/21 13:33:51;;;;;;;8.32;5.00;;;;;;;;;;5074199;28;20428;-72
2022/10/21 13:36:56;;;;;;;12.13;6.20;;;;;;;;;;5074207;28;20037;-70
2022/10/21 13:40:01;;;;;;;6.35;4.47;;;;;;;;;;5073857;28;20045;-70
2022/10/21 13:43:11;;;;;;;6.40;5.35;;;;;;;;;;5073967;28;20484;-70
2022/10/21 13:46:27;;;;;;;11.32;6.35;;;;;;;;;;5073616;28;20040;-70
2022/10/21 13:49:32;;;;;;;10.02;6.07;;;;;;;;;;5073864;28;20036;-73
2022/10/21 13:52:37;;;;;;;9.52;5.65;;;;;;;;;;5073503;28;20052;-73
2022/10/21 13:55:41;;;;;;;13.93;6.60;;;;;;;;;;5073489;28;20480;-72
2022/10/21 13:58:45;;;;;;;17.38;6.40;;;;;;;;;;5072355;28;20044;-72
2022/10/21 14:01:51;;;;;;;10.57;6.43;;;;;;;;;;5073306;28;20041;-72
2022/10/21 14:04:56;;;;;;;16.27;7.00;;;;;;;;;;5072263;28;20044;-73
2022/10/21 14:08:01;;;;;;;24.95;8.02;;;;;;;;;;5073470;28;20055;-73
2022/10/21 14:11:11;;;;;;;12.45;8.25;;;;;;;;;;5072350;28;20051;-73
2022/10/21 14:14:17;;;;;;;10.03;6.83;;;;;;;;;;5073449;28;20040;-73
2022/10/21 14:17:23;;;;;;;16.02;8.10;;;;;;;;;;5072418;28;20039;-71
2022/10/21 14:20:27;;;;;;;13.27;7.60;;;;;;;;;;5072960;28;20040;-70
2022/10/21 14:23:31;;;;;;;23.73;9.43;;;;;;;;;;5073126;28;20032;-71
2022/10/21 14:26:40;;;;;;;16.25;7.75;;;;;;;;;;5073023;28;20036;-71
2022/10/21 14:29:44;;;;;;;11.10;6.68;;;;;;;;;;5072782;28;20036;-71
2022/10/21 14:32:50;;;;;;;13.85;6.90;;;;;;;;;;5072779;28;20405;-72
2022/10/21 14:36:03;;;;;;;12.77;7.43;;;;;;;;;;5072785;28;20048;-73
2022/10/21 14:39:17;;;;;;;18.25;8.70;;;;;;;;;;5072570;28;20041;-74
2022/10/21 14:42:24;;;;;;;12.27;7.13;;;;;;;;;;5071858;28;20040;-72
2022/10/21 14:45:33;;;;;;;10.63;6.68;;;;;;;;;;5072959;28;20047;-73
2022/10/21 14:48:44;;;;;;;17.13;7.70;;;;;;;;;;5072224;28;20036;-74
2022/10/21 14:51:49;;;;;;;12.23;7.85;;;;;;;;;;5072535;28;20037;-72
2022/10/21 14:55:06;;;;;;;15.27;8.10;;;;;;;;;;5072657;28;20047;-73
2022/10/21 14:58:13;;;;;;;13.40;8.50;;;;;;;;;;5072550;28;20037;-72
2022/10/21 15:01:18;;;;;;;10.90;7.82;;;;;;;;;;5072404;28;20041;-73
2022/10/21 15:04:42;;;;;;;13.05;7.80;;;;;;;;;;5072370;28;20044;-73
2022/10/21 15:07:46;;;;;;;16.70;8.50;;;;;;;;;;5072437;28;20385;-74
2022/10/21 15:10:59;;;;;;;17.40;9.32;;;;;;;;;;5072016;28;20041;-79
2022/10/21 15:14:06;;;;;;;15.60;8.75;;;;;;;;;;5071031;28;20400;-79
2022/10/21 15:17:10;;;;;;;20.70;8.90;;;;;;;;;;5071889;28;20527;-72
2022/10/21 15:20:15;;;;;;;17.40;7.82;;;;;;;;;;5071707;28;20427;-74
2022/10/21 15:23:22;;;;;;;18.45;10.25;;;;;;;;;;5071151;28;20029;-74
2022/10/21 15:26:45;;;;;;;18.63;9.23;;;;;;;;;;5071986;28;20047;-72
2022/10/21 15:29:50;;;;;;;24.60;13.38;;;;;;;;;;5071446;28;20032;-75
2022/10/21 15:32:54;;;;;;;26.80;14.05;;;;;;;;;;5071644;28;20051;-73
2022/10/21 15:35:59;;;;;;;26.48;13.07;;;;;;;;;;5071135;28;20043;-75
2022/10/21 15:39:03;;;;;;;34.25;15.48;;;;;;;;;;5071748;28;20507;-74
2022/10/21 15:42:09;;;;;;;22.05;12.35;;;;;;;;;;5071961;28;20043;-73
2022/10/21 15:45:15;;;;;;;17.60;11.60;;;;;;;;;;5071712;28;20047;-71
2022/10/21 15:48:19;;;;;;;26.30;16.20;;;;;;;;;;5071329;28;20040;-71
2022/10/21 15:51:24;;;;;;;34.20;16.52;;;;;;;;;;5071285;28;20412;-73
2022/10/21 15:54:28;;;;;;;26.88;15.50;;;;;;;;;;5071256;28;20039;-74
2022/10/21 15:57:32;;;;;;;34.75;17.23;;;;;;;;;;5071579;28;20043;-72
2022/10/21 16:00:37;;;;;;;33.78;15.13;;;;;;;;;;5071075;28;20044;-70
2022/10/21 16:03:42;;;;;;;37.55;20.55;;;;;;;;;;5071492;28;20051;-71
2022/10/21 16:06:47;;;;;;;38.53;17.65;;;;;;;;;;5070986;28;20212;-70
2022/10/21 16:09:51;;;;;;;23.08;12.55;;;;;;;;;;5071027;28;20044;-70
2022/10/21 16:12:55;;;;;;;23.17;12.32;;;;;;;;;;5070253;28;20416;-72
2022/10/21 16:16:00;;;;;;;22.88;10.98;;;;;;;;;;5071239;28;20039;-70
2022/10/21 16:19:04;;;;;;;17.52;10.38;;;;;;;;;;5071209;28;20522;-71
2022/10/21 16:22:19;;;;;;;20.17;10.55;;;;;;;;;;5070975;28;20047;-72
2022/10/21 16:25:23;;;;;;;23.80;11.88;;;;;;;;;;5071212;28;20408;-73
2022/10/21 16:28:27;;;;;;;18.95;10.70;;;;;;;;;;5071261;28;20063;-72
2022/10/21 16:31:32;;;;;;;24.15;11.43;;;;;;;;;;5070633;28;20060;-73
2022/10/21 16:34:36;;;;;;;19.67;11.25;;;;;;;;;;5070713;28;20052;-73
2022/10/21 16:37:41;;;;;;;16.30;11.10;;;;;;;;;;5071031;28;20127;-71
2022/10/21 16:40:45;;;;;;;18.75;11.70;;;;;;;;;;5070654;28;20047;-71
2022/10/21 16:43:49;;;;;;;20.80;11.25;;;;;;;;;;5070931;28;20043;-73
2022/10/21 16:46:54;;;;;;;25.50;12.30;;;;;;;;;;5070686;28;20052;-73
2022/10/21 16:50:00;;;;;;;20.45;12.68;;;;;;;;;;5069017;28;20063;-79
2022/10/21 16:53:05;;;;;;;17.48;11.60;;;;;;;;;;5069540;28;20055;-73
2022/10/21 16:56:09;;;;;;;25.55;11.95;;;;;;;;;;5070611;28;20060;-74
2022/10/21 16:59:14;;;;;;;25.15;11.85;;;;;;;;;;5069139;28;20059;-71
2022/10/21 17:02:19;;;;;;;22.88;12.75;;;;;;;;;;5070641;28;20483;-74
2022/10/21 17:05:24;;;;;;;29.77;13.65;;;;;;;;;;5070525;28;20054;-73
2022/10/21 17:08:28;;;;;;;32.70;15.20;;;;;;;;;;5070550;28;20385;-73
2022/10/21 17:11:34;;;;;;;32.47;18.45;;;;;;;;;;5070436;28;20499;-74
2022/10/21 17:14:39;;;;;;;23.88;17.55;;;;;;;;;;5070766;28;20064;-74
2022/10/21 17:17:44;;;;;;;28.83;18.20;;;;;;;;;;5069564;28;20047;-71
2022/10/21 17:20:48;;;;;;;33.17;18.25;;;;;;;;;;5070212;28;20044;-71
2022/10/21 17:23:53;;;;;;;24.88;16.70;;;;;;;;;;5070505;28;20504;-73
2022/10/21 17:26:58;;;;;;;31.48;15.23;;;;;;;;;;5070213;28;20195;-73
2022/10/21 17:30:02;;;;;;;24.73;15.63;;;;;;;;;;5070028;28;20424;-73
2022/10/21 17:33:06;;;;;;;31.02;15.45;;;;;;;;;;5070308;28;20211;-73
2022/10/21 17:36:11;;;;;;;26.63;14.38;;;;;;;;;;5070275;28;20039;-73
2022/10/21 17:39:16;;;;;;;30.83;16.23;;;;;;;;;;5070137;28;20605;-73
2022/10/21 17:42:20;;;;;;;25.38;15.98;;;;;;;;;;5070076;28;20044;-73
2022/10/21 17:45:24;;;;;;;25.08;15.77;;;;;;;;;;5070873;28;20214;-73
2022/10/21 17:48:29;;;;;;;28.02;16.33;;;;;;;;;;5073188;28;20048;-73
2022/10/21 17:51:33;;;;;;;26.25;16.50;;;;;;;;;;5074064;28;20250;-74
2022/10/21 17:54:37;;;;;;;39.95;15.40;;;;;;;;;;5073731;28;20111;-73
2022/10/21 17:57:41;;;;;;;34.85;16.00;;;;;;;;;;5073828;28;20067;-73
2022/10/21 18:00:45;;;;;;;32.05;16.58;;;;;;;;;;5073449;28;20047;-73
2022/10/21 18:03:50;;;;;;;25.25;15.93;;;;;;;;;;5073598;28;20507;-73
2022/10/21 18:06:54;;;;;;;29.08;16.38;;;;;;;;;;5073657;28;20056;-73
2022/10/21 18:09:59;;;;;;;28.52;16.30;;;;;;;;;;5073012;28;20071;-71
2022/10/21 18:13:03;;;;;;;30.77;15.93;;;;;;;;;;5073157;28;20400;-73
2022/10/21 18:16:09;;;;;;;27.95;16.30;;;;;;;;;;5073068;28;20229;-73
2022/10/21 18:19:13;;;;;;;27.75;16.98;;;;;;;;;;5073042;28;20186;-73